sensor_id;sensor_type;location;lat;lon;timestamp;P1;durP1;ratioP1;P2;durP2;ratioP2
31037;SDS011;17702;47.590;7.666;2022-07-31T19:17:47;2.78;;;1.52;;
31037;SDS011;17702;47.590;7.666;2022-07-31T19:20:12;5.05;;;1.63;;
31037;SDS011;17702;47.590;7.666;2022-07-31T19:22:38;5.47;;;1.42;;
31037;SDS011;17702;47.590;7.666;2022-07-31T19:25:05;3.47;;;1.42;;
31037;SDS011;17702;47.590;7.666;2022-07-31T19:27:32;3.15;;;1.50;;
31037;SDS011;17702;47.590;7.666;2022-07-31T19:29:58;2.35;;;1.52;;
31037;SDS011;17702;47.590;7.666;2022-07-31T19:32:24;4.20;;;1.75;;
31037;SDS011;17702;47.590;7.666;2022-07-31T19:34:51;4.65;;;1.60;;
31037;SDS011;17702;47.590;7.666;2022-07-31T19:37:17;4.10;;;1.50;;
31037;SDS011;17702;47.590;7.666;2022-07-31T19:39:44;1.95;;;1.42;;
31037;SDS011;17702;47.590;7.666;2022-07-31T19:42:09;1.80;;;1.40;;
31037;SDS011;17702;47.590;7.666;2022-07-31T19:44:35;2.40;;;2.00;;
31037;SDS011;17702;47.590;7.666;2022-07-31T19:47:01;4.60;;;1.60;;
31037;SDS011;17702;47.590;7.666;2022-07-31T19:49:27;3.22;;;1.80;;
31037;SDS011;17702;47.590;7.666;2022-07-31T19:51:52;5.93;;;1.50;;
31037;SDS011;17702;47.590;7.666;2022-07-31T19:54:18;3.20;;;1.88;;
31037;SDS011;17702;47.590;7.666;2022-07-31T19:56:44;2.75;;;1.50;;
31037;SDS011;17702;47.590;7.666;2022-07-31T19:59:09;2.90;;;1.70;;
31037;SDS011;17702;47.590;7.666;2022-07-31T20:01:35;3.35;;;1.70;;
31037;SDS011;17702;47.590;7.666;2022-07-31T20:04:00;6.68;;;2.03;;
31037;SDS011;17702;47.590;7.666;2022-07-31T20:06:26;2.38;;;1.75;;
31037;SDS011;17702;47.590;7.666;2022-07-31T20:08:52;3.42;;;2.17;;
31037;SDS011;17702;47.590;7.666;2022-07-31T20:11:17;2.90;;;1.73;;
31037;SDS011;17702;47.590;7.666;2022-07-31T20:13:43;3.15;;;1.85;;
31037;SDS011;17702;47.590;7.666;2022-07-31T20:16:09;3.53;;;2.13;;
31037;SDS011;17702;47.590;7.666;2022-07-31T20:18:35;5.40;;;2.20;;
31037;SDS011;17702;47.590;7.666;2022-07-31T20:21:02;2.50;;;2.10;;
31037;SDS011;17702;47.590;7.666;2022-07-31T20:23:31;4.37;;;2.40;;
31037;SDS011;17702;47.590;7.666;2022-07-31T20:28:31;4.05;;;3.15;;
31037;SDS011;17702;47.590;7.666;2022-07-31T20:30:57;4.55;;;1.95;;
31037;SDS011;17702;47.590;7.666;2022-07-31T20:33:22;3.80;;;2.70;;
31037;SDS011;17702;47.590;7.666;2022-07-31T20:35:48;9.98;;;2.38;;
31037;SDS011;17702;47.590;7.666;2022-07-31T20:38:14;2.60;;;2.40;;
31037;SDS011;17702;47.590;7.666;2022-07-31T20:40:39;6.53;;;2.50;;
31037;SDS011;17702;47.590;7.666;2022-07-31T20:43:05;4.03;;;2.45;;
31037;SDS011;17702;47.590;7.666;2022-07-31T20:45:31;8.68;;;2.70;;
31037;SDS011;17702;47.590;7.666;2022-07-31T20:47:56;5.28;;;2.70;;
31037;SDS011;17702;47.590;7.666;2022-07-31T20:50:23;5.88;;;3.13;;
31037;SDS011;17702;47.590;7.666;2022-07-31T20:52:49;4.30;;;2.78;;
31037;SDS011;17702;47.590;7.666;2022-07-31T20:55:14;6.32;;;3.25;;
31037;SDS011;17702;47.590;7.666;2022-07-31T20:57:40;4.38;;;3.30;;
31037;SDS011;17702;47.590;7.666;2022-07-31T21:00:06;4.95;;;3.17;;
31037;SDS011;17702;47.590;7.666;2022-07-31T21:02:32;4.97;;;3.17;;
31037;SDS011;17702;47.590;7.666;2022-07-31T21:04:58;3.63;;;3.17;;
31037;SDS011;17702;47.590;7.666;2022-07-31T21:07:24;5.30;;;3.13;;
31037;SDS011;17702;47.590;7.666;2022-07-31T21:09:50;3.53;;;3.22;;
31037;SDS011;17702;47.590;7.666;2022-07-31T21:12:15;5.32;;;3.60;;
31037;SDS011;17702;47.590;7.666;2022-07-31T21:14:41;4.35;;;3.38;;
31037;SDS011;17702;47.590;7.666;2022-07-31T21:17:07;6.15;;;3.60;;
31037;SDS011;17702;47.590;7.666;2022-07-31T21:19:32;3.47;;;3.28;;
31037;SDS011;17702;47.590;7.666;2022-07-31T21:21:58;3.67;;;3.03;;
31037;SDS011;17702;47.590;7.666;2022-07-31T21:24:24;4.40;;;3.20;;
31037;SDS011;17702;47.590;7.666;2022-07-31T21:26:49;4.20;;;2.90;;
31037;SDS011;17702;47.590;7.666;2022-07-31T21:29:19;4.50;;;3.10;;
31037;SDS011;17702;47.590;7.666;2022-07-31T21:31:45;5.95;;;3.88;;
31037;SDS011;17702;47.590;7.666;2022-07-31T21:34:11;4.93;;;4.47;;
31037;SDS011;17702;47.590;7.666;2022-07-31T21:36:37;5.38;;;3.78;;
31037;SDS011;17702;47.590;7.666;2022-07-31T21:39:03;8.25;;;3.83;;
31037;SDS011;17702;47.590;7.666;2022-07-31T21:41:29;5.93;;;4.20;;
31037;SDS011;17702;47.590;7.666;2022-07-31T21:43:55;8.32;;;4.13;;
31037;SDS011;17702;47.590;7.666;2022-07-31T21:46:20;6.97;;;3.55;;
31037;SDS011;17702;47.590;7.666;2022-07-31T21:48:47;4.07;;;3.50;;
31037;SDS011;17702;47.590;7.666;2022-07-31T21:51:13;5.10;;;3.72;;
31037;SDS011;17702;47.590;7.666;2022-07-31T21:53:40;5.10;;;3.30;;
31037;SDS011;17702;47.590;7.666;2022-07-31T21:56:07;5.88;;;3.20;;
31037;SDS011;17702;47.590;7.666;2022-07-31T21:58:34;4.00;;;3.30;;
31037;SDS011;17702;47.590;7.666;2022-07-31T22:01:00;7.07;;;3.45;;
31037;SDS011;17702;47.590;7.666;2022-07-31T22:03:26;3.42;;;3.08;;
31037;SDS011;17702;47.590;7.666;2022-07-31T22:05:51;4.43;;;3.17;;
31037;SDS011;17702;47.590;7.666;2022-07-31T22:08:35;5.63;;;2.97;;
31037;SDS011;17702;47.590;7.666;2022-07-31T22:11:01;2.92;;;2.72;;
31037;SDS011;17702;47.590;7.666;2022-07-31T22:13:27;3.20;;;2.50;;
31037;SDS011;17702;47.590;7.666;2022-07-31T22:15:52;4.40;;;2.55;;
31037;SDS011;17702;47.590;7.666;2022-07-31T22:18:18;3.80;;;2.92;;
31037;SDS011;17702;47.590;7.666;2022-07-31T22:20:44;6.57;;;3.05;;
31037;SDS011;17702;47.590;7.666;2022-07-31T22:23:10;3.70;;;3.33;;
31037;SDS011;17702;47.590;7.666;2022-07-31T22:25:37;3.15;;;2.80;;
31037;SDS011;17702;47.590;7.666;2022-07-31T22:28:03;6.93;;;2.70;;
31037;SDS011;17702;47.590;7.666;2022-07-31T22:30:29;6.35;;;2.83;;
31037;SDS011;17702;47.590;7.666;2022-07-31T22:32:55;4.95;;;3.17;;
31037;SDS011;17702;47.590;7.666;2022-07-31T22:35:25;8.80;;;2.40;;
31037;SDS011;17702;47.590;7.666;2022-07-31T22:37:52;4.47;;;2.40;;
31037;SDS011;17702;47.590;7.666;2022-07-31T22:40:18;4.78;;;2.50;;
31037;SDS011;17702;47.590;7.666;2022-07-31T22:42:45;3.28;;;2.70;;
31037;SDS011;17702;47.590;7.666;2022-07-31T22:45:12;6.78;;;3.10;;
31037;SDS011;17702;47.590;7.666;2022-07-31T22:47:39;3.55;;;3.30;;
31037;SDS011;17702;47.590;7.666;2022-07-31T22:50:07;6.65;;;3.67;;
31037;SDS011;17702;47.590;7.666;2022-07-31T22:52:35;3.90;;;2.83;;
31037;SDS011;17702;47.590;7.666;2022-07-31T22:55:00;4.30;;;2.90;;
31037;SDS011;17702;47.590;7.666;2022-07-31T22:57:27;3.72;;;2.70;;
31037;SDS011;17702;47.590;7.666;2022-07-31T22:59:52;10.85;;;4.00;;
31037;SDS011;17702;47.590;7.666;2022-07-31T23:02:18;4.90;;;2.50;;
31037;SDS011;17702;47.590;7.666;2022-07-31T23:04:44;4.88;;;2.90;;
31037;SDS011;17702;47.590;7.666;2022-07-31T23:07:09;2.67;;;2.47;;
31037;SDS011;17702;47.590;7.666;2022-07-31T23:09:35;4.13;;;2.58;;
31037;SDS011;17702;47.590;7.666;2022-07-31T23:12:01;3.55;;;2.63;;
31037;SDS011;17702;47.590;7.666;2022-07-31T23:14:27;3.67;;;2.70;;
31037;SDS011;17702;47.590;7.666;2022-07-31T23:16:56;5.30;;;3.72;;
31037;SDS011;17702;47.590;7.666;2022-07-31T23:19:22;4.18;;;3.13;;
31037;SDS011;17702;47.590;7.666;2022-07-31T23:21:48;7.30;;;3.75;;
31037;SDS011;17702;47.590;7.666;2022-07-31T23:24:14;3.58;;;2.85;;
31037;SDS011;17702;47.590;7.666;2022-07-31T23:26:40;3.10;;;2.53;;
31037;SDS011;17702;47.590;7.666;2022-07-31T23:29:05;5.00;;;2.60;;
31037;SDS011;17702;47.590;7.666;2022-07-31T23:31:31;6.25;;;2.40;;
31037;SDS011;17702;47.590;7.666;2022-07-31T23:33:57;3.38;;;3.08;;
31037;SDS011;17702;47.590;7.666;2022-07-31T23:36:23;4.53;;;2.70;;
31037;SDS011;17702;47.590;7.666;2022-07-31T23:38:48;3.70;;;2.53;;
31037;SDS011;17702;47.590;7.666;2022-07-31T23:41:14;4.15;;;3.08;;
31037;SDS011;17702;47.590;7.666;2022-07-31T23:44:00;3.13;;;2.80;;
31037;SDS011;17702;47.590;7.666;2022-07-31T23:46:26;3.50;;;3.20;;
31037;SDS011;17702;47.590;7.666;2022-07-31T23:48:51;3.78;;;3.35;;
31037;SDS011;17702;47.590;7.666;2022-07-31T23:51:17;5.35;;;4.20;;
31037;SDS011;17702;47.590;7.666;2022-07-31T23:53:42;8.10;;;4.45;;
31037;SDS011;17702;47.590;7.666;2022-07-31T23:56:08;5.30;;;4.68;;
31037;SDS011;17702;47.590;7.666;2022-07-31T23:58:33;6.22;;;3.78;;
